createdAt,value
2023-01-08T04:36:25.239Z,3.01
2023-01-08T04:38:53.291Z,3.01
2023-01-08T04:41:21.368Z,3.01
2023-01-08T04:43:49.215Z,3.02
2023-01-08T04:46:17.209Z,3.02
2023-01-08T04:48:44.981Z,3.02
2023-01-08T04:51:12.864Z,3.02
2023-01-08T04:53:41.724Z,3.02
2023-01-08T04:56:10.839Z,3.01
2023-01-08T04:58:39.348Z,3.00
2023-01-08T05:01:12.345Z,3.00
2023-01-08T05:03:40.620Z,2.99
2023-01-08T05:06:08.971Z,2.99
2023-01-08T05:08:36.875Z,2.99
2023-01-08T05:11:04.874Z,2.99
2023-01-08T05:13:32.798Z,3.00
2023-01-08T05:16:01.384Z,3.01
2023-01-08T05:18:29.804Z,3.02
2023-01-08T05:21:02.194Z,3.04
2023-01-08T05:23:31.500Z,3.05
2023-01-08T05:26:01.116Z,3.08
2023-01-08T05:28:29.259Z,3.11
2023-01-08T05:30:58.056Z,3.13
2023-01-08T05:33:26.338Z,3.16
2023-01-08T05:35:54.682Z,3.19
2023-01-08T05:38:23.162Z,3.22
2023-01-08T05:40:54.388Z,3.26
2023-01-08T05:43:22.522Z,3.29
2023-01-08T05:45:50.346Z,3.31
2023-01-08T05:48:18.541Z,3.34
2023-01-08T05:50:49.413Z,3.37
2023-01-08T05:53:42.608Z,3.39
2023-01-08T05:56:11.861Z,3.42
2023-01-08T05:58:39.622Z,3.44
2023-01-08T06:01:13.557Z,3.45
2023-01-08T06:03:41.496Z,3.47
2023-01-08T06:06:11.062Z,3.48
2023-01-08T06:08:39.663Z,3.49
2023-01-08T06:11:11.064Z,3.50
2023-01-08T06:13:42.370Z,3.51
2023-01-08T06:16:10.660Z,3.50
2023-01-08T06:18:39.142Z,3.51
2023-01-08T06:21:07.128Z,3.51
2023-01-08T06:23:35.094Z,3.50
2023-01-08T06:26:04.318Z,3.49
2023-01-08T06:28:33.084Z,3.49
2023-01-08T06:31:01.813Z,3.49
2023-01-08T06:33:30.731Z,3.50
2023-01-08T06:36:04.460Z,3.49
2023-01-08T06:38:35.617Z,3.50
2023-01-08T06:41:08.816Z,3.49
2023-01-08T06:43:38.098Z,3.49
2023-01-08T06:46:08.836Z,3.49
2023-01-08T06:48:37.656Z,3.48
2023-01-08T06:51:06.449Z,3.46
2023-01-08T06:53:34.361Z,3.45
2023-01-08T06:56:03.747Z,3.43
2023-01-08T06:58:31.678Z,3.42
2023-01-08T07:00:59.674Z,3.40
2023-01-08T07:03:27.704Z,3.39
2023-01-08T07:05:56.799Z,3.37
2023-01-08T07:08:24.686Z,3.36
2023-01-08T07:10:52.475Z,3.34
2023-01-08T07:13:22.985Z,3.33
2023-01-08T07:15:51.666Z,3.31
2023-01-08T07:18:19.669Z,3.29
2023-01-08T07:20:50.660Z,3.28
2023-01-08T07:23:18.419Z,3.27
2023-01-08T07:25:47.432Z,3.26
2023-01-08T07:28:15.650Z,3.25
2023-01-08T07:30:44.961Z,3.24
2023-01-08T07:33:12.798Z,3.23
2023-01-08T07:35:40.848Z,3.23
2023-01-08T07:38:08.741Z,3.22
2023-01-08T07:40:39.143Z,3.23
2023-01-08T07:43:07.372Z,3.24
2023-01-08T07:45:35.267Z,3.25
2023-01-08T07:48:03.051Z,3.26
2023-01-08T07:50:31.167Z,3.27
2023-01-08T07:53:02.523Z,3.27
2023-01-08T07:55:31.042Z,3.27
2023-01-08T07:57:59.131Z,3.28
2023-01-08T08:00:27.110Z,3.29
2023-01-08T08:02:55.358Z,3.30
2023-01-08T08:05:24.146Z,3.32
2023-01-08T08:07:52.049Z,3.33
2023-01-08T08:10:19.873Z,3.33
2023-01-08T08:12:47.800Z,3.33
2023-01-08T08:15:15.740Z,3.34
2023-01-08T08:17:48.312Z,3.33
2023-01-08T08:20:16.468Z,3.33
2023-01-08T08:22:44.255Z,3.34
2023-01-08T08:25:15.324Z,3.35
2023-01-08T08:27:44.317Z,3.35
2023-01-08T08:30:13.020Z,3.35
2023-01-08T08:32:40.831Z,3.37
2023-01-08T08:35:09.257Z,3.38
2023-01-08T08:37:37.154Z,3.39
2023-01-08T08:40:05.510Z,3.39
2023-01-08T08:42:33.319Z,3.40
2023-01-08T08:45:01.156Z,3.42
2023-01-08T08:47:28.937Z,3.44
2023-01-08T08:49:56.720Z,3.47
2023-01-08T08:52:24.626Z,3.48
2023-01-08T08:54:52.435Z,3.50
2023-01-08T08:57:20.194Z,3.50
2023-01-08T08:59:48.337Z,3.51
2023-01-08T09:02:16.480Z,3.54
2023-01-08T09:04:44.453Z,3.57
2023-01-08T09:07:12.283Z,3.58
2023-01-08T09:09:40.050Z,3.60
2023-01-08T09:12:08.234Z,3.60
2023-01-08T09:14:36.218Z,3.62
2023-01-08T09:17:04.052Z,3.64
2023-01-08T09:19:31.852Z,3.65
2023-01-08T09:22:01.252Z,3.67
2023-01-08T09:24:32.201Z,3.67
2023-01-08T09:27:00.120Z,3.67
2023-01-08T09:29:27.889Z,3.68
2023-01-08T09:31:55.941Z,3.70
2023-01-08T09:34:23.804Z,3.71
2023-01-08T09:36:52.416Z,3.73
2023-01-08T09:39:20.527Z,3.75
2023-01-08T09:41:58.243Z,3.76
2023-01-08T09:44:29.898Z,3.79
2023-01-08T09:46:58.715Z,3.82
2023-01-08T09:49:38.656Z,3.85
2023-01-08T09:52:06.873Z,3.88
2023-01-08T09:54:34.747Z,3.91
2023-01-08T09:57:02.829Z,3.93
2023-01-08T09:59:31.224Z,3.97
2023-01-08T10:01:59.745Z,4.00
2023-01-08T10:04:29.955Z,4.02
2023-01-08T10:07:11.046Z,4.06
2023-01-08T10:09:40.876Z,4.10
2023-01-08T10:12:12.883Z,4.14
2023-01-08T10:14:48.098Z,4.18
2023-01-08T10:17:39.231Z,4.22
2023-01-08T10:20:16.078Z,4.27
2023-01-08T10:22:44.671Z,4.30
2023-01-08T10:25:16.582Z,4.32
2023-01-08T10:27:53.497Z,4.32
2023-01-08T10:30:29.035Z,4.31
2023-01-08T10:33:02.666Z,4.30
2023-01-08T10:35:36.036Z,4.30
2023-01-08T10:38:04.681Z,4.30
2023-01-08T10:40:35.564Z,4.29
2023-01-08T10:43:13.290Z,4.29
2023-01-08T10:45:43.862Z,4.28
2023-01-08T10:48:18.222Z,4.26
2023-01-08T10:50:46.215Z,4.23
2023-01-08T10:53:25.953Z,4.22
2023-01-08T10:56:01.796Z,4.20
2023-01-08T10:58:30.648Z,4.17
2023-01-08T11:04:36.764Z,4.15
2023-01-08T11:07:06.939Z,4.16
2023-01-08T11:09:41.814Z,4.18
2023-01-08T11:12:41.792Z,4.17
2023-01-08T11:15:17.840Z,4.17
2023-01-08T11:17:46.319Z,4.16
2023-01-08T11:20:22.358Z,4.14
2023-01-08T11:22:50.754Z,4.09
2023-01-08T11:25:28.868Z,4.08
2023-01-08T11:27:58.500Z,4.10
2023-01-08T11:30:27.925Z,4.11
2023-01-08T11:33:18.405Z,4.13
2023-01-08T11:38:41.475Z,4.12
2023-01-08T11:41:09.300Z,4.15
2023-01-08T11:44:23.703Z,4.17
2023-01-08T11:47:05.086Z,4.13
2023-01-08T11:49:32.866Z,4.12
2023-01-08T11:52:00.756Z,4.08
2023-01-08T11:54:46.911Z,4.01
2023-01-08T11:57:23.727Z,3.96
2023-01-08T12:00:14.385Z,3.95
2023-01-08T12:03:01.418Z,3.93
2023-01-08T12:06:02.415Z,3.90
2023-01-08T12:08:44.393Z,3.87
2023-01-08T12:11:26.681Z,3.86
2023-01-08T12:14:25.492Z,3.85
2023-01-08T12:17:46.198Z,3.82
2023-01-08T12:20:26.372Z,3.80
2023-01-08T12:22:57.165Z,3.77
2023-01-08T12:25:46.838Z,3.73
2023-01-08T12:28:30.028Z,3.72
2023-01-08T12:31:18.196Z,3.72
2023-01-08T12:34:05.350Z,3.71
2023-01-08T12:36:55.280Z,3.70
2023-01-08T12:39:33.922Z,3.68
2023-01-08T12:42:24.626Z,3.68
2023-01-08T12:44:55.178Z,3.67
2023-01-08T12:47:28.150Z,3.65
2023-01-08T12:50:20.743Z,3.63
2023-01-08T12:52:56.176Z,3.62
2023-01-08T12:55:38.916Z,3.62
2023-01-08T12:58:31.730Z,3.62
2023-01-08T13:01:17.309Z,3.60
2023-01-08T13:03:45.715Z,3.60
2023-01-08T13:06:16.967Z,3.60
2023-01-08T13:08:52.318Z,3.60
2023-01-08T13:11:37.003Z,3.59
2023-01-08T13:14:08.885Z,3.58
2023-01-08T13:16:46.771Z,3.56
2023-01-08T13:19:26.125Z,3.54
2023-01-08T13:21:57.500Z,3.53
2023-01-08T13:24:29.534Z,3.51
2023-01-08T13:27:09.640Z,3.49
2023-01-08T13:29:40.422Z,3.49
2023-01-08T13:32:39.532Z,3.48
2023-01-08T13:35:16.544Z,3.47
2023-01-08T13:37:50.927Z,3.46
2023-01-08T13:40:43.794Z,3.45
2023-01-08T13:43:25.204Z,3.44
2023-01-08T13:46:02.671Z,3.44
2023-01-08T13:48:49.659Z,3.43
2023-01-08T13:54:40.275Z,3.41
2023-01-08T13:57:14.928Z,3.41
2023-01-08T13:59:49.595Z,3.41
2023-01-08T14:02:44.550Z,3.40
2023-01-08T14:05:29.821Z,3.40
2023-01-08T14:07:59.123Z,3.39
2023-01-08T14:10:29.430Z,3.39
2023-01-08T14:13:07.219Z,3.38
2023-01-08T14:15:38.710Z,3.36
2023-01-08T14:18:06.891Z,3.35
2023-01-08T14:20:39.381Z,3.34
2023-01-08T14:23:20.502Z,3.33
2023-01-08T14:25:49.596Z,3.32
2023-01-08T14:28:22.879Z,3.31
2023-01-08T14:30:53.583Z,3.30
2023-01-08T14:33:32.373Z,3.29
2023-01-08T14:36:02.340Z,3.27
2023-01-08T14:38:30.329Z,3.26
2023-01-08T14:41:03.029Z,3.25
2023-01-08T14:43:35.609Z,3.24
2023-01-08T14:46:04.358Z,3.23
2023-01-08T14:48:43.143Z,3.23
2023-01-08T14:51:16.766Z,3.22
2023-01-08T14:53:48.431Z,3.21
2023-01-08T14:56:20.083Z,3.20
2023-01-08T14:58:49.501Z,3.19
2023-01-08T15:01:23.801Z,3.19
2023-01-08T15:04:04.189Z,3.19
2023-01-08T15:06:33.828Z,3.18
2023-01-08T15:09:01.850Z,3.18
2023-01-08T15:11:53.425Z,3.17
2023-01-08T15:14:26.152Z,3.16
2023-01-08T15:16:57.924Z,3.16
2023-01-08T15:19:28.873Z,3.16
2023-01-08T15:21:59.531Z,3.16
2023-01-08T15:24:36.062Z,3.16
2023-01-08T15:27:10.073Z,3.16
2023-01-08T15:29:41.954Z,3.16
2023-01-08T15:32:18.405Z,3.15
2023-01-08T15:34:46.601Z,3.14
2023-01-08T15:37:15.615Z,3.14
2023-01-08T15:39:43.569Z,3.13
2023-01-08T15:42:43.255Z,3.13
2023-01-08T15:45:14.092Z,3.12
2023-01-08T15:47:42.017Z,3.12
2023-01-08T15:50:10.594Z,3.12
2023-01-08T15:52:41.667Z,3.12
2023-01-08T15:55:18.604Z,3.12
2023-01-08T15:57:46.925Z,3.11
2023-01-08T16:00:16.501Z,3.10
2023-01-08T16:02:47.453Z,3.10
2023-01-08T16:05:20.069Z,3.10
2023-01-08T16:07:48.481Z,3.08
2023-01-08T16:10:17.616Z,3.07
2023-01-08T16:12:45.660Z,3.06
2023-01-08T16:15:15.336Z,3.07
2023-01-08T16:17:44.123Z,3.06
2023-01-08T16:20:13.340Z,3.06
2023-01-08T16:22:41.747Z,3.06
2023-01-08T16:25:09.967Z,3.06
2023-01-08T16:27:39.623Z,3.07
2023-01-08T16:30:10.467Z,3.07
2023-01-08T16:32:38.265Z,3.07
2023-01-08T16:35:06.738Z,3.07
2023-01-08T16:37:34.573Z,3.07
2023-01-08T16:40:02.375Z,3.07
2023-01-08T16:42:30.330Z,3.08
2023-01-08T16:44:58.174Z,3.08
2023-01-08T16:47:26.010Z,3.10
2023-01-08T16:49:54.356Z,3.10
2023-01-08T16:52:22.509Z,3.10
2023-01-08T16:54:50.373Z,3.11
2023-01-08T16:57:18.187Z,3.11
2023-01-08T16:59:46.537Z,3.11
2023-01-08T17:02:14.389Z,3.11
2023-01-08T17:04:42.234Z,3.10
2023-01-08T17:07:13.570Z,3.10
2023-01-08T17:09:41.456Z,3.10
2023-01-08T17:12:09.265Z,3.10
2023-01-08T17:14:37.508Z,3.10
2023-01-08T17:17:05.431Z,3.11
2023-01-08T17:19:33.475Z,3.10
2023-01-08T17:22:01.268Z,3.09
2023-01-08T17:24:29.035Z,3.08
2023-01-08T17:26:57.972Z,3.08
2023-01-08T17:29:25.899Z,3.07
2023-01-08T17:31:53.856Z,3.08
2023-01-08T17:34:21.730Z,3.07
2023-01-08T17:36:49.547Z,3.07
2023-01-08T17:39:17.462Z,3.07
2023-01-08T17:42:03.709Z,3.08
2023-01-08T17:44:31.659Z,3.06
2023-01-08T17:46:59.498Z,3.06
2023-01-08T17:49:27.314Z,3.06
2023-01-08T17:51:57.032Z,3.05
2023-01-08T17:54:25.122Z,3.05
2023-01-08T17:56:53.777Z,3.05
2023-01-08T17:59:21.897Z,3.04
2023-01-08T18:01:52.207Z,3.03
2023-01-08T18:04:20.339Z,3.03
2023-01-08T18:06:48.239Z,3.02
2023-01-08T18:09:16.112Z,3.02
2023-01-08T18:11:44.016Z,3.01
2023-01-08T18:14:13.427Z,3.01
2023-01-08T18:16:45.577Z,3.02
2023-01-08T18:19:15.952Z,3.01
2023-01-08T18:21:44.588Z,3.02
2023-01-08T18:24:13.280Z,3.01
2023-01-08T18:26:41.555Z,3.02
2023-01-08T18:29:09.632Z,3.03
2023-01-08T18:31:37.607Z,3.04
2023-01-08T18:34:05.669Z,3.04
2023-01-08T18:36:33.541Z,3.05
2023-01-08T18:39:01.455Z,3.05
2023-01-08T18:41:48.173Z,3.06
2023-01-08T18:44:16.197Z,3.06
2023-01-08T18:46:45.467Z,3.06
2023-01-08T18:49:14.996Z,3.07
2023-01-08T18:51:43.371Z,3.07
2023-01-08T18:54:12.946Z,3.07
2023-01-08T18:56:40.754Z,3.07
2023-01-08T18:59:10.309Z,3.08
2023-01-08T19:04:36.387Z,3.06
2023-01-08T19:07:04.235Z,3.05
2023-01-08T19:09:32.065Z,3.05
2023-01-08T19:11:59.965Z,3.05
2023-01-08T19:14:30.831Z,3.05
2023-01-08T19:16:59.028Z,3.06
2023-01-08T19:19:28.403Z,3.07
2023-01-08T19:21:57.240Z,3.07
2023-01-08T19:24:25.225Z,3.06
2023-01-08T19:26:53.148Z,3.07
2023-01-08T19:29:20.972Z,3.08
2023-01-08T19:31:48.869Z,3.09
2023-01-08T19:34:16.652Z,3.09
2023-01-08T19:36:44.673Z,3.10
2023-01-08T19:39:12.885Z,3.12
2023-01-08T19:41:59.426Z,3.13
2023-01-08T19:44:27.273Z,3.15
2023-01-08T19:46:55.129Z,3.15
2023-01-08T19:49:23.861Z,3.16
2023-01-08T19:51:52.635Z,3.18
2023-01-08T19:54:23.689Z,3.18
2023-01-08T19:56:52.860Z,3.19
2023-01-08T19:59:20.777Z,3.20
2023-01-08T20:01:49.025Z,3.21
2023-01-08T20:04:17.129Z,3.22
2023-01-08T20:06:45.079Z,3.23
2023-01-08T20:10:04.615Z,3.24
2023-01-08T20:12:32.694Z,3.23
2023-01-08T20:15:00.558Z,3.23
2023-01-08T20:17:28.470Z,3.23
2023-01-08T20:19:56.330Z,3.23
2023-01-08T20:22:24.970Z,3.23
2023-01-08T20:24:53.272Z,3.23
2023-01-08T20:27:21.061Z,3.23
2023-01-08T20:29:48.890Z,3.22
2023-01-08T20:32:16.740Z,3.22
2023-01-08T20:34:44.689Z,3.23
2023-01-08T20:37:12.571Z,3.24
2023-01-08T20:39:41.029Z,3.23
2023-01-08T20:42:10.075Z,3.24
2023-01-08T20:44:38.094Z,3.24
2023-01-08T20:47:05.993Z,3.25
2023-01-08T20:49:33.797Z,3.26
2023-01-08T20:52:01.678Z,3.26
2023-01-08T20:54:30.343Z,3.26
2023-01-08T20:56:59.607Z,3.26
2023-01-08T20:59:28.250Z,3.26
2023-01-08T21:01:57.298Z,3.28
2023-01-08T21:04:25.728Z,3.28
2023-01-08T21:06:53.855Z,3.27
2023-01-08T21:09:21.866Z,3.28
2023-01-08T21:11:50.753Z,3.28
2023-01-08T21:14:18.691Z,3.28
2023-01-08T21:16:46.471Z,3.29
2023-01-08T21:19:15.414Z,3.29
2023-01-08T21:21:43.431Z,3.29
2023-01-08T21:24:12.991Z,3.29
2023-01-08T21:26:40.932Z,3.29
2023-01-08T21:29:09.229Z,3.30
2023-01-08T21:31:38.329Z,3.29
2023-01-08T21:34:08.780Z,3.30
2023-01-08T21:36:39.144Z,3.31
2023-01-08T21:39:07.369Z,3.31
2023-01-08T21:41:53.820Z,3.31
2023-01-08T21:44:42.120Z,3.31
2023-01-08T21:47:13.286Z,3.31
2023-01-08T21:49:42.105Z,3.30
2023-01-08T21:52:28.429Z,3.30
2023-01-08T21:54:58.159Z,3.30
2023-01-08T21:57:28.141Z,3.31
2023-01-08T21:59:56.333Z,3.31
2023-01-08T22:02:26.152Z,3.32
2023-01-08T22:04:56.754Z,3.32
2023-01-08T22:07:25.824Z,3.32
2023-01-08T22:09:53.785Z,3.33
2023-01-08T22:12:26.049Z,3.33
2023-01-08T22:14:55.218Z,3.34
2023-01-08T22:17:25.023Z,3.33
2023-01-08T22:19:53.511Z,3.33
2023-01-08T22:22:21.472Z,3.33
2023-01-08T22:24:51.719Z,3.33
2023-01-08T22:27:19.671Z,3.33
2023-01-08T22:29:48.920Z,3.33
2023-01-08T22:32:17.010Z,3.33
2023-01-08T22:34:44.967Z,3.33
2023-01-08T22:37:12.976Z,3.33
2023-01-08T22:39:41.714Z,3.33
2023-01-08T22:42:09.709Z,3.33
2023-01-08T22:44:37.572Z,3.33
2023-01-08T22:47:06.289Z,3.34
2023-01-08T22:49:34.336Z,3.33
2023-01-08T22:52:02.267Z,3.33
2023-01-08T22:54:30.412Z,3.33
2023-01-08T22:56:58.379Z,3.32
2023-01-08T22:59:26.342Z,3.32
2023-01-08T23:01:54.419Z,3.31
2023-01-08T23:04:22.244Z,3.32
2023-01-08T23:06:50.001Z,3.31
2023-01-08T23:09:18.202Z,3.31
2023-01-08T23:11:46.019Z,3.30
2023-01-08T23:14:15.979Z,3.30
2023-01-08T23:16:44.319Z,3.30
2023-01-08T23:19:12.383Z,3.29
2023-01-08T23:21:40.355Z,3.27
2023-01-08T23:24:11.869Z,3.27
2023-01-08T23:26:39.888Z,3.26
2023-01-08T23:29:07.819Z,3.25
2023-01-08T23:31:37.827Z,3.25
2023-01-08T23:34:06.497Z,3.25
2023-01-08T23:36:34.442Z,3.24
2023-01-08T23:39:02.371Z,3.23
2023-01-08T23:41:35.057Z,3.22
2023-01-08T23:44:06.477Z,3.21
2023-01-08T23:46:34.976Z,3.20
2023-01-08T23:49:03.091Z,3.19
2023-01-08T23:51:30.878Z,3.19
2023-01-08T23:53:58.970Z,3.18
2023-01-08T23:56:27.701Z,3.16
2023-01-08T23:58:56.642Z,3.16
